createdAt,value
2019-05-06T00:00:30.587Z,4.20
2019-05-06T00:03:00.372Z,4.20
2019-05-06T00:05:30.444Z,4.20
2019-05-06T00:08:00.452Z,4.20
2019-05-06T00:10:34.148Z,4.20
2019-05-06T00:13:04.799Z,4.20
2019-05-06T00:15:35.059Z,4.20
2019-05-06T00:18:04.949Z,4.20
2019-05-06T00:20:35.223Z,4.20
2019-05-06T00:23:09.887Z,4.20
2019-05-06T00:25:54.601Z,4.20
2019-05-06T00:28:30.030Z,4.20
2019-05-06T00:31:11.306Z,4.20
2019-05-06T00:33:34.089Z,4.20
2019-05-06T00:36:04.793Z,4.10
2019-05-06T00:38:36.225Z,4.10
2019-05-06T00:41:17.237Z,4.10
2019-05-06T00:43:47.159Z,4.10
2019-05-06T00:46:16.984Z,4.10
2019-05-06T00:48:46.769Z,4.10
2019-05-06T00:51:16.520Z,4.10
2019-05-06T00:53:54.394Z,4.00
2019-05-06T00:56:25.429Z,4.00
2019-05-06T00:58:55.241Z,4.00
2019-05-06T01:01:29.420Z,3.90
2019-05-06T01:03:57.041Z,3.90
2019-05-06T01:06:26.856Z,3.80
2019-05-06T01:09:10.111Z,3.80
2019-05-06T01:11:40.758Z,3.80
2019-05-06T01:14:18.929Z,3.70
2019-05-06T01:16:48.742Z,3.70
2019-05-06T01:19:18.652Z,3.60
2019-05-06T01:21:48.486Z,3.60
2019-05-06T01:24:18.338Z,3.60
2019-05-06T01:26:48.226Z,3.50
2019-05-06T01:29:18.144Z,3.50
2019-05-06T01:31:47.950Z,3.50
2019-05-06T01:34:18.196Z,3.50
2019-05-06T01:36:48.175Z,3.40
2019-05-06T01:39:19.593Z,3.40
2019-05-06T01:41:59.885Z,3.30
2019-05-06T01:44:29.797Z,3.30
2019-05-06T01:46:59.622Z,3.30
2019-05-06T01:49:29.530Z,3.20
2019-05-06T01:51:59.659Z,3.20
2019-05-06T01:54:29.411Z,3.20
2019-05-06T01:56:59.238Z,3.10
2019-05-06T01:59:28.997Z,3.10
2019-05-06T02:02:01.237Z,3.10
2019-05-06T02:04:31.188Z,3.00
2019-05-06T02:07:01.236Z,3.00
2019-05-06T02:09:31.054Z,3.00
2019-05-06T02:12:01.146Z,2.90
2019-05-06T02:14:30.945Z,2.90
2019-05-06T02:17:00.742Z,2.90
2019-05-06T02:19:31.525Z,2.90
2019-05-06T02:22:04.324Z,2.90
2019-05-06T02:24:35.921Z,2.80
2019-05-06T02:27:06.659Z,2.80
2019-05-06T02:29:43.495Z,2.80
2019-05-06T02:32:27.128Z,2.80
2019-05-06T02:34:57.587Z,2.80
2019-05-06T02:37:46.752Z,2.80
2019-05-06T02:40:25.844Z,2.80
2019-05-06T02:42:56.436Z,2.80
2019-05-06T02:45:26.388Z,2.90
2019-05-06T02:48:07.144Z,2.90
2019-05-06T02:50:47.685Z,2.90
2019-05-06T02:53:19.262Z,2.90
2019-05-06T02:55:49.092Z,2.90
2019-05-06T02:58:18.867Z,3.00
2019-05-06T03:00:48.781Z,3.00
2019-05-06T03:03:18.542Z,3.00
2019-05-06T03:05:48.350Z,3.00
2019-05-06T03:08:18.119Z,3.00
2019-05-06T03:10:48.079Z,3.00
2019-05-06T03:13:17.882Z,3.00
2019-05-06T03:15:48.603Z,3.10
2019-05-06T03:18:18.390Z,3.10
2019-05-06T03:20:55.761Z,3.10
2019-05-06T03:23:34.948Z,3.10
2019-05-06T03:26:06.624Z,3.20
2019-05-06T03:28:37.003Z,3.20
2019-05-06T03:31:08.095Z,3.30
2019-05-06T03:33:55.417Z,3.30
2019-05-06T03:36:23.636Z,3.30
2019-05-06T03:38:43.159Z,3.30
2019-05-06T03:41:13.849Z,3.40
2019-05-06T03:43:44.111Z,3.40
2019-05-06T03:46:15.756Z,3.30
2019-05-06T03:48:47.609Z,3.40
2019-05-06T03:51:17.544Z,3.40
2019-05-06T03:53:47.586Z,3.40
2019-05-06T03:56:19.918Z,3.40
2019-05-06T03:58:53.690Z,3.40
2019-05-06T04:01:23.976Z,3.40
2019-05-06T04:03:57.284Z,3.40
2019-05-06T04:06:26.877Z,3.40
2019-05-06T04:08:57.606Z,3.40
2019-05-06T04:11:27.949Z,3.40
2019-05-06T04:14:02.761Z,3.50
2019-05-06T04:16:39.930Z,3.50
2019-05-06T04:19:13.193Z,3.50
2019-05-06T04:21:58.480Z,3.60
2019-05-06T04:24:45.077Z,3.60
2019-05-06T04:27:33.857Z,3.70
2019-05-06T04:30:05.057Z,3.70
2019-05-06T04:32:35.218Z,3.80
2019-05-06T04:35:06.261Z,4.00
2019-05-06T04:37:36.173Z,4.10
2019-05-06T04:40:07.344Z,4.20
2019-05-06T04:42:37.514Z,4.30
2019-05-06T04:45:07.746Z,4.40
2019-05-06T04:47:37.708Z,4.50
2019-05-06T04:50:09.027Z,4.50
2019-05-06T04:52:38.910Z,4.50
2019-05-06T04:55:09.518Z,4.60
2019-05-06T04:57:39.364Z,4.70
2019-05-06T05:00:12.995Z,4.70
2019-05-06T05:02:46.305Z,4.80
2019-05-06T05:05:14.509Z,4.80
2019-05-06T05:07:44.320Z,4.80
2019-05-06T05:10:16.708Z,4.90
2019-05-06T05:13:03.550Z,5.00
2019-05-06T05:15:44.763Z,5.00
2019-05-06T05:18:32.141Z,5.10
2019-05-06T05:21:02.434Z,5.10
2019-05-06T05:23:33.329Z,5.20
2019-05-06T05:26:03.993Z,5.30
2019-05-06T05:28:34.554Z,5.40
2019-05-06T05:31:04.420Z,5.50
2019-05-06T05:33:34.648Z,5.60
2019-05-06T05:36:04.536Z,5.70
2019-05-06T05:38:34.354Z,5.80
2019-05-06T05:41:04.157Z,5.90
2019-05-06T05:43:42.409Z,5.90
2019-05-06T05:46:12.713Z,6.00
2019-05-06T05:48:45.663Z,6.10
2019-05-06T05:51:15.856Z,6.20
2019-05-06T05:53:45.779Z,6.30
2019-05-06T05:56:15.797Z,6.40
2019-05-06T05:58:45.774Z,6.40
2019-05-06T06:01:15.716Z,6.50
2019-05-06T06:03:46.062Z,6.60
2019-05-06T06:06:16.125Z,6.70
2019-05-06T06:08:46.190Z,6.80
2019-05-06T06:11:23.872Z,6.90
2019-05-06T06:13:54.729Z,7.00
2019-05-06T06:16:43.541Z,7.10
2019-05-06T06:19:25.678Z,7.20
2019-05-06T06:22:00.191Z,7.30
2019-05-06T06:24:32.221Z,7.40
2019-05-06T06:27:03.059Z,7.50
2019-05-06T06:29:34.372Z,7.60
2019-05-06T06:32:14.853Z,7.70
2019-05-06T06:35:10.644Z,7.80
2019-05-06T06:37:37.042Z,7.90
2019-05-06T06:40:09.614Z,8.00
2019-05-06T06:42:39.538Z,8.10
2019-05-06T06:45:09.694Z,8.10
2019-05-06T06:47:39.678Z,8.10
2019-05-06T06:50:09.672Z,8.20
2019-05-06T06:52:41.992Z,8.20
2019-05-06T06:55:12.944Z,8.30
2019-05-06T06:57:49.166Z,8.40
2019-05-06T07:00:23.116Z,8.50
2019-05-06T07:02:57.841Z,8.60
2019-05-06T07:05:29.614Z,8.70
2019-05-06T07:07:59.592Z,8.90
2019-05-06T07:10:45.705Z,9.10
2019-05-06T07:13:16.882Z,9.30
2019-05-06T07:15:47.552Z,9.50
2019-05-06T07:18:17.447Z,9.70
2019-05-06T07:21:05.177Z,9.80
2019-05-06T07:23:38.307Z,9.90
2019-05-06T07:26:12.096Z,10.10
2019-05-06T07:28:43.699Z,10.20
2019-05-06T07:31:21.784Z,10.20
2019-05-06T07:33:45.395Z,10.30
2019-05-06T07:36:15.288Z,10.40
2019-05-06T07:38:52.670Z,10.50
2019-05-06T07:41:32.612Z,10.50
2019-05-06T07:44:19.331Z,10.50
2019-05-06T07:47:03.361Z,10.60
2019-05-06T07:49:32.938Z,10.70
2019-05-06T07:52:03.106Z,10.80
2019-05-06T07:54:33.211Z,11.10
2019-05-06T07:57:03.057Z,11.40
2019-05-06T07:59:33.507Z,11.70
2019-05-06T08:02:04.454Z,12.10
2019-05-06T08:04:34.294Z,12.40
2019-05-06T08:07:05.269Z,12.70
2019-05-06T08:09:35.067Z,13.00
2019-05-06T08:12:05.269Z,13.30
2019-05-06T08:14:43.186Z,13.60
2019-05-06T08:17:23.230Z,13.90
2019-05-06T08:19:53.206Z,14.20
2019-05-06T08:22:33.376Z,14.30
2019-05-06T08:25:05.465Z,14.40
2019-05-06T08:27:35.279Z,14.50
2019-05-06T08:30:07.989Z,14.40
2019-05-06T08:32:37.842Z,14.40
2019-05-06T08:35:10.031Z,14.30
2019-05-06T08:37:43.006Z,14.30
2019-05-06T08:40:13.182Z,14.20
2019-05-06T08:42:43.046Z,14.10
2019-05-06T08:45:13.581Z,14.00
2019-05-06T08:47:43.490Z,13.90
2019-05-06T08:50:21.893Z,13.80
2019-05-06T08:53:06.429Z,13.60
2019-05-06T08:55:46.839Z,13.50
2019-05-06T08:58:16.738Z,13.50
2019-05-06T09:00:49.085Z,13.40
2019-05-06T09:03:19.175Z,13.40
2019-05-06T09:05:54.866Z,13.50
2019-05-06T09:08:25.022Z,13.50
2019-05-06T09:10:54.902Z,13.60
2019-05-06T09:13:25.486Z,13.80
2019-05-06T09:15:56.521Z,14.00
2019-05-06T09:18:26.425Z,14.40
2019-05-06T09:20:56.284Z,14.70
2019-05-06T09:23:27.608Z,15.00
2019-05-06T09:25:57.670Z,15.50
2019-05-06T09:28:34.710Z,16.00
2019-05-06T09:31:09.564Z,16.60
2019-05-06T09:33:42.018Z,17.20
2019-05-06T09:36:12.807Z,17.70
2019-05-06T09:38:42.722Z,18.20
2019-05-06T09:41:12.702Z,18.60
2019-05-06T09:43:43.293Z,18.90
2019-05-06T09:46:13.385Z,19.20
2019-05-06T09:49:03.141Z,19.40
2019-05-06T09:51:32.557Z,19.50
2019-05-06T09:54:05.267Z,19.50
2019-05-06T09:56:49.885Z,19.40
2019-05-06T09:59:21.568Z,19.30
2019-05-06T10:01:52.774Z,19.10
2019-05-06T10:04:22.874Z,18.90
2019-05-06T10:06:57.369Z,18.60
2019-05-06T10:09:25.068Z,18.40
2019-05-06T10:11:55.062Z,18.20
2019-05-06T10:14:25.085Z,18.00
2019-05-06T10:16:54.947Z,17.80
2019-05-06T10:19:25.681Z,17.70
2019-05-06T10:21:55.522Z,17.60
2019-05-06T10:24:25.390Z,17.50
2019-05-06T10:26:56.828Z,17.50
2019-05-06T10:29:32.595Z,17.50
2019-05-06T10:32:19.326Z,17.60
2019-05-06T10:34:49.236Z,17.70
2019-05-06T10:37:33.565Z,17.80
2019-05-06T10:40:22.699Z,17.80
2019-05-06T10:43:26.825Z,17.70
2019-05-06T10:45:56.826Z,17.40
2019-05-06T10:48:28.339Z,17.20
2019-05-06T10:51:17.056Z,16.90
2019-05-06T10:53:47.058Z,16.70
2019-05-06T10:56:28.082Z,16.60
2019-05-06T10:58:59.605Z,16.50
2019-05-06T11:01:43.219Z,16.50
2019-05-06T11:04:13.147Z,16.40
2019-05-06T11:06:43.693Z,16.30
2019-05-06T11:09:13.656Z,16.20
2019-05-06T11:11:43.538Z,16.20
2019-05-06T11:14:13.457Z,16.20
2019-05-06T11:16:43.265Z,16.20
2019-05-06T11:19:13.393Z,16.20
2019-05-06T11:21:45.067Z,16.30
2019-05-06T11:24:14.863Z,16.30
2019-05-06T11:26:44.742Z,16.40
2019-05-06T11:29:20.370Z,16.50
2019-05-06T11:32:03.807Z,16.60
2019-05-06T11:37:24.693Z,16.40
2019-05-06T11:39:54.566Z,16.30
2019-05-06T11:42:31.690Z,16.10
2019-05-06T11:44:56.065Z,16.00
2019-05-06T11:47:25.930Z,15.80
2019-05-06T11:49:57.508Z,15.60
2019-05-06T11:52:27.478Z,15.50
2019-05-06T11:54:58.990Z,15.40
2019-05-06T11:57:28.946Z,15.30
2019-05-06T11:59:59.142Z,15.30
2019-05-06T12:02:28.955Z,15.20
2019-05-06T12:05:02.173Z,15.20
2019-05-06T12:07:33.184Z,15.10
2019-05-06T12:10:03.638Z,15.10
2019-05-06T12:12:33.660Z,15.00
2019-05-06T12:15:07.259Z,14.90
2019-05-06T12:17:38.274Z,14.80
2019-05-06T12:20:08.230Z,14.70
2019-05-06T12:22:38.093Z,14.60
2019-05-06T12:25:11.777Z,14.50
2019-05-06T12:27:47.036Z,14.40
2019-05-06T12:30:23.514Z,14.40
2019-05-06T12:33:04.714Z,14.30
2019-05-06T12:35:36.621Z,14.30
2019-05-06T12:38:24.001Z,14.30
2019-05-06T12:40:42.917Z,14.30
2019-05-06T12:43:30.140Z,14.40
2019-05-06T12:46:04.502Z,14.40
2019-05-06T12:48:36.142Z,14.60
2019-05-06T12:51:06.077Z,14.70
2019-05-06T12:53:35.905Z,14.90
2019-05-06T12:56:05.870Z,15.00
2019-05-06T12:58:36.522Z,15.10
2019-05-06T13:01:07.084Z,15.10
2019-05-06T13:03:36.894Z,15.20
2019-05-06T13:06:08.795Z,15.20
2019-05-06T13:08:53.955Z,15.20
2019-05-06T13:11:12.966Z,15.10
2019-05-06T13:13:56.529Z,15.00
2019-05-06T13:16:14.997Z,14.90
2019-05-06T13:18:47.698Z,14.80
2019-05-06T13:21:16.813Z,14.80
2019-05-06T13:23:54.811Z,14.80
2019-05-06T13:26:24.630Z,14.70
2019-05-06T13:28:56.200Z,14.70
2019-05-06T13:31:26.022Z,14.70
2019-05-06T13:33:57.646Z,14.70
2019-05-06T13:36:27.520Z,14.70
2019-05-06T13:39:13.269Z,14.70
2019-05-06T13:41:28.971Z,14.80
2019-05-06T13:44:03.185Z,14.80
2019-05-06T13:46:34.724Z,14.90
2019-05-06T13:49:06.360Z,15.00
2019-05-06T13:51:38.607Z,15.10
2019-05-06T13:54:08.830Z,15.20
2019-05-06T13:56:38.812Z,15.30
2019-05-06T13:59:08.608Z,15.40
2019-05-06T14:01:43.924Z,15.50
2019-05-06T14:04:16.530Z,15.50
2019-05-06T14:06:46.393Z,15.40
2019-05-06T14:09:28.362Z,15.20
2019-05-06T14:11:47.883Z,15.10
2019-05-06T14:14:17.773Z,15.00
2019-05-06T14:16:47.679Z,14.80
2019-05-06T14:19:17.496Z,14.60
2019-05-06T14:21:48.101Z,14.50
2019-05-06T14:24:18.106Z,14.50
2019-05-06T14:27:02.368Z,14.40
2019-05-06T14:29:33.225Z,14.40
2019-05-06T14:32:04.106Z,14.40
2019-05-06T14:34:33.995Z,14.40
2019-05-06T14:37:03.850Z,14.40
2019-05-06T14:39:50.010Z,14.50
2019-05-06T14:42:06.811Z,14.50
2019-05-06T14:44:36.646Z,14.50
2019-05-06T14:47:08.182Z,14.60
2019-05-06T14:49:38.055Z,14.60
2019-05-06T14:52:07.977Z,14.70
2019-05-06T14:54:52.967Z,14.70
2019-05-06T14:57:23.335Z,14.70
2019-05-06T14:59:55.485Z,14.70
2019-05-06T15:02:27.233Z,14.70
2019-05-06T15:04:57.341Z,14.70
2019-05-06T15:07:27.230Z,14.70
2019-05-06T15:10:15.141Z,14.70
2019-05-06T15:12:29.743Z,14.80
2019-05-06T15:14:59.648Z,14.80
2019-05-06T15:17:29.483Z,14.80
2019-05-06T15:19:59.275Z,14.80
2019-05-06T15:22:29.102Z,14.80
2019-05-06T15:24:58.982Z,14.80
2019-05-06T15:27:28.950Z,14.80
2019-05-06T15:30:04.142Z,14.80
2019-05-06T15:32:36.311Z,14.80
2019-05-06T15:35:22.981Z,14.80
2019-05-06T15:37:57.469Z,14.80
2019-05-06T15:40:32.983Z,14.80
2019-05-06T15:42:58.893Z,14.80
2019-05-06T15:45:28.868Z,14.80
2019-05-06T15:47:59.380Z,14.70
2019-05-06T15:50:29.288Z,14.70
2019-05-06T15:53:01.811Z,14.70
2019-05-06T15:55:32.673Z,14.60
2019-05-06T15:58:03.672Z,14.50
2019-05-06T16:00:33.634Z,14.30
2019-05-06T16:03:03.665Z,14.20
2019-05-06T16:05:34.492Z,14.10
2019-05-06T16:08:05.186Z,14.00
2019-05-06T16:10:51.234Z,14.00
2019-05-06T16:13:06.717Z,14.00
2019-05-06T16:15:36.586Z,14.00
2019-05-06T16:18:06.784Z,14.00
2019-05-06T16:20:36.692Z,14.00
2019-05-06T16:23:11.093Z,14.00
2019-05-06T16:25:42.323Z,14.00
2019-05-06T16:28:12.978Z,14.00
2019-05-06T16:30:43.017Z,14.00
2019-05-06T16:33:15.326Z,13.90
2019-05-06T16:35:44.505Z,14.00
2019-05-06T16:38:14.330Z,13.90
2019-05-06T16:40:45.390Z,14.00
2019-05-06T16:43:16.334Z,13.90
2019-05-06T16:45:46.153Z,14.00
2019-05-06T16:48:15.928Z,14.00
2019-05-06T16:50:45.826Z,13.90
2019-05-06T16:53:15.641Z,14.00
2019-05-06T16:55:58.990Z,13.90
2019-05-06T16:58:39.213Z,13.90
2019-05-06T17:01:09.418Z,13.90
2019-05-06T17:03:43.851Z,13.90
2019-05-06T17:06:18.328Z,13.80
2019-05-06T17:08:48.333Z,13.80
2019-05-06T17:11:28.159Z,13.70
2019-05-06T17:13:49.625Z,13.70
2019-05-06T17:16:19.441Z,13.60
2019-05-06T17:18:49.381Z,13.60
2019-05-06T17:21:19.201Z,13.60
2019-05-06T17:23:48.969Z,13.50
2019-05-06T17:26:18.798Z,13.40
2019-05-06T17:29:02.784Z,13.30
2019-05-06T17:31:49.825Z,13.30
2019-05-06T17:34:26.101Z,13.20
2019-05-06T17:36:57.627Z,13.10
2019-05-06T17:39:27.397Z,13.10
2019-05-06T17:41:57.170Z,13.00
2019-05-06T17:44:27.137Z,13.00
2019-05-06T17:46:58.666Z,12.90
2019-05-06T17:49:30.878Z,12.90
2019-05-06T17:52:05.064Z,12.80
2019-05-06T17:54:35.086Z,12.80
2019-05-06T17:57:05.067Z,12.80
2019-05-06T17:59:37.448Z,12.70
2019-05-06T18:02:08.092Z,12.70
2019-05-06T18:04:37.921Z,12.70
2019-05-06T18:07:07.697Z,12.60
2019-05-06T18:09:37.610Z,12.60
2019-05-06T18:12:07.505Z,12.60
2019-05-06T18:14:37.358Z,12.50
2019-05-06T18:17:07.126Z,12.50
2019-05-06T18:19:36.925Z,12.50
2019-05-06T18:22:06.709Z,12.40
2019-05-06T18:24:36.532Z,12.40
2019-05-06T18:27:06.441Z,12.30
2019-05-06T18:29:36.292Z,12.30
2019-05-06T18:32:06.068Z,12.20
2019-05-06T18:34:35.846Z,12.20
2019-05-06T18:37:05.678Z,12.10
2019-05-06T18:39:35.585Z,12.00
2019-05-06T18:42:16.867Z,11.90
2019-05-06T18:44:38.993Z,11.90
2019-05-06T18:47:08.770Z,11.80
2019-05-06T18:49:38.828Z,11.80
2019-05-06T18:52:08.745Z,11.70
2019-05-06T18:54:39.788Z,11.70
2019-05-06T18:57:09.623Z,11.60
2019-05-06T18:59:39.397Z,11.60
2019-05-06T19:02:09.957Z,11.60
2019-05-06T19:04:41.968Z,11.50
2019-05-06T19:07:16.203Z,11.50
2019-05-06T19:09:45.333Z,11.50
2019-05-06T19:12:28.935Z,11.50
2019-05-06T19:14:46.833Z,11.50
2019-05-06T19:17:17.140Z,11.40
2019-05-06T19:19:47.059Z,11.40
2019-05-06T19:22:16.864Z,11.40
2019-05-06T19:24:46.653Z,11.40
2019-05-06T19:27:16.605Z,11.40
2019-05-06T19:29:46.418Z,11.30
2019-05-06T19:32:16.361Z,11.30
2019-05-06T19:34:46.200Z,11.30
2019-05-06T19:37:16.009Z,11.30
2019-05-06T19:39:58.143Z,11.30
2019-05-06T19:42:28.393Z,11.20
2019-05-06T19:44:58.389Z,11.20
2019-05-06T19:47:28.210Z,11.20
2019-05-06T19:49:58.553Z,11.10
2019-05-06T19:52:29.082Z,11.10
2019-05-06T19:54:58.892Z,11.10
2019-05-06T19:57:29.237Z,11.00
2019-05-06T20:00:00.023Z,11.00
2019-05-06T20:02:31.862Z,11.00
2019-05-06T20:05:09.326Z,10.90
2019-05-06T20:07:45.794Z,10.90
2019-05-06T20:10:17.266Z,10.90
2019-05-06T20:12:59.493Z,10.80
2019-05-06T20:15:35.030Z,10.90
2019-05-06T20:18:06.333Z,10.80
2019-05-06T20:20:38.266Z,10.80
2019-05-06T20:23:08.072Z,10.70
2019-05-06T20:25:37.849Z,10.70
2019-05-06T20:28:07.665Z,10.60
2019-05-06T20:30:37.603Z,10.60
2019-05-06T20:33:07.441Z,10.60
2019-05-06T20:35:37.262Z,10.50
2019-05-06T20:38:07.127Z,10.50
2019-05-06T20:40:38.543Z,10.50
2019-05-06T20:43:19.350Z,10.40
2019-05-06T20:45:42.512Z,10.40
2019-05-06T20:48:12.944Z,10.40
2019-05-06T20:50:56.506Z,10.40
2019-05-06T20:53:27.051Z,10.30
2019-05-06T20:55:57.006Z,10.30
2019-05-06T20:58:27.905Z,10.30
2019-05-06T21:00:57.725Z,10.30
2019-05-06T21:03:27.748Z,10.30
2019-05-06T21:05:57.642Z,10.20
2019-05-06T21:08:27.524Z,10.20
2019-05-06T21:10:57.365Z,10.20
2019-05-06T21:13:32.136Z,10.10
2019-05-06T21:15:59.025Z,10.10
2019-05-06T21:18:28.934Z,10.00
2019-05-06T21:20:59.093Z,9.90
2019-05-06T21:23:31.964Z,9.80
2019-05-06T21:26:03.279Z,9.70
2019-05-06T21:28:32.699Z,9.60
2019-05-06T21:31:03.178Z,9.50
2019-05-06T21:33:33.077Z,9.40
2019-05-06T21:36:03.294Z,9.30
2019-05-06T21:38:33.157Z,9.20
2019-05-06T21:41:03.018Z,9.10
2019-05-06T21:43:46.071Z,9.10
2019-05-06T21:46:05.394Z,8.90
2019-05-06T21:48:35.565Z,8.90
2019-05-06T21:51:05.492Z,8.80
2019-05-06T21:53:35.993Z,8.70
2019-05-06T21:56:05.830Z,8.60
2019-05-06T21:58:35.593Z,8.60
2019-05-06T22:01:07.181Z,8.50
2019-05-06T22:03:38.728Z,8.40
2019-05-06T22:06:09.971Z,8.30
2019-05-06T22:08:39.828Z,8.20
2019-05-06T22:11:09.889Z,8.20
2019-05-06T22:13:42.368Z,8.10
2019-05-06T22:16:12.326Z,8.00
2019-05-06T22:18:43.226Z,8.00
2019-05-06T22:21:18.877Z,7.90
2019-05-06T22:26:36.028Z,7.80
2019-05-06T22:29:06.174Z,7.70
2019-05-06T22:31:35.932Z,7.70
2019-05-06T22:34:05.701Z,7.60
2019-05-06T22:36:35.635Z,7.50
2019-05-06T22:39:06.678Z,7.50
2019-05-06T22:41:37.918Z,7.50
2019-05-06T22:44:13.803Z,7.40
2019-05-06T22:46:39.399Z,7.30
2019-05-06T22:49:09.219Z,7.20
2019-05-06T22:51:39.385Z,7.20
2019-05-06T22:54:09.147Z,7.10
2019-05-06T22:56:39.021Z,7.00
2019-05-06T22:59:08.784Z,7.00
2019-05-06T23:01:49.317Z,6.90
2019-05-06T23:04:21.742Z,6.80
2019-05-06T23:06:52.266Z,6.80
2019-05-06T23:09:22.881Z,6.70
2019-05-06T23:11:53.718Z,6.70
2019-05-06T23:14:31.195Z,6.60
2019-05-06T23:16:55.053Z,6.60
2019-05-06T23:19:24.941Z,6.50
2019-05-06T23:21:55.477Z,6.50
2019-05-06T23:24:25.285Z,6.50
2019-05-06T23:26:55.119Z,6.40
2019-05-06T23:29:25.833Z,6.40
2019-05-06T23:31:55.717Z,6.40
2019-05-06T23:34:25.589Z,6.30
2019-05-06T23:37:02.722Z,6.30
2019-05-06T23:40:17.224Z,6.30
2019-05-06T23:43:23.867Z,6.20
2019-05-06T23:46:32.409Z,6.10
2019-05-06T23:49:39.081Z,6.10
2019-05-06T23:52:45.821Z,6.00
2019-05-06T23:55:52.485Z,5.90
2019-05-06T23:58:22.502Z,5.80
